createdAt,value
2023-12-18T00:15:49.442Z,5.30
2023-12-18T00:35:50.932Z,5.30
2023-12-18T00:55:52.497Z,6.70
2023-12-18T01:15:54.115Z,7.00
2023-12-18T01:35:55.534Z,5.90
2023-12-18T01:55:56.906Z,5.20
2023-12-18T02:15:58.339Z,5.40
2023-12-18T02:35:59.836Z,6.60
2023-12-18T02:56:01.318Z,5.80
2023-12-18T03:16:02.907Z,6.40
2023-12-18T03:36:04.555Z,7.40
2023-12-18T03:56:06.026Z,8.30
2023-12-18T04:16:07.440Z,9.40
2023-12-18T04:36:11.395Z,6.80
2023-12-18T04:56:13.089Z,7.90
2023-12-18T05:16:14.694Z,8.80
2023-12-18T05:36:16.200Z,6.50
2023-12-18T05:56:17.689Z,7.80
2023-12-18T06:16:19.084Z,7.40
2023-12-18T06:36:20.646Z,9.60
2023-12-18T06:56:22.294Z,9.40
2023-12-18T07:16:23.688Z,11.00
2023-12-18T07:36:25.729Z,12.90
2023-12-18T07:56:27.219Z,12.40
2023-12-18T08:16:29.033Z,11.70
2023-12-18T08:36:30.662Z,10.20
2023-12-18T08:56:32.229Z,10.00
2023-12-18T09:16:34.382Z,9.70
2023-12-18T09:36:36.579Z,7.30
2023-12-18T09:56:37.991Z,10.30
2023-12-18T10:16:39.563Z,6.20
2023-12-18T10:36:40.952Z,6.90
2023-12-18T10:56:42.363Z,12.70
2023-12-18T11:16:43.873Z,8.90
2023-12-18T11:36:45.348Z,8.70
2023-12-18T11:56:46.912Z,9.90
2023-12-18T12:16:48.493Z,14.60
2023-12-18T12:36:49.901Z,12.60
2023-12-18T12:56:51.377Z,8.70
2023-12-18T13:16:52.799Z,8.20
2023-12-18T13:36:54.226Z,10.80
2023-12-18T13:56:55.896Z,10.20
2023-12-18T14:16:57.526Z,14.80
2023-12-18T14:36:59.153Z,16.20
2023-12-18T14:57:00.723Z,10.10
2023-12-18T15:17:02.134Z,10.40
2023-12-18T15:37:03.543Z,14.50
2023-12-18T15:57:05.096Z,10.80
2023-12-18T16:17:06.706Z,8.30
2023-12-18T16:37:08.203Z,7.50
2023-12-18T16:57:09.737Z,9.20
2023-12-18T17:17:11.313Z,11.20
2023-12-18T17:37:12.839Z,9.80
2023-12-18T17:57:14.488Z,11.20
2023-12-18T18:17:16.257Z,10.90
2023-12-18T18:37:17.933Z,11.70
2023-12-18T18:57:19.381Z,10.90
2023-12-18T19:17:20.966Z,12.40
2023-12-18T19:37:22.496Z,14.90
2023-12-18T19:57:24.055Z,17.10
2023-12-18T20:17:25.734Z,14.60
2023-12-18T20:37:27.242Z,12.80
2023-12-18T20:57:28.831Z,13.40
2023-12-18T21:17:30.267Z,16.00
2023-12-18T21:37:31.966Z,13.00
2023-12-18T21:57:33.623Z,9.70
2023-12-18T22:17:35.291Z,11.30
2023-12-18T22:37:36.760Z,12.50
2023-12-18T22:57:38.223Z,11.00
2023-12-18T23:17:39.893Z,10.00
2023-12-18T23:37:41.306Z,10.10
2023-12-18T23:57:42.745Z,12.40
